createdAt,value
2023-02-17T00:00:32.572Z,95.80
2023-02-17T00:05:57.315Z,100.60
2023-02-17T00:11:19.940Z,94.00
2023-02-17T00:16:42.097Z,93.40
2023-02-17T00:22:03.880Z,81.20
2023-02-17T00:27:27.433Z,88.20
2023-02-17T00:32:49.577Z,78.70
2023-02-17T00:38:11.380Z,77.80
2023-02-17T00:43:33.953Z,74.20
2023-02-17T00:48:55.813Z,91.00
2023-02-17T00:54:18.798Z,80.30
2023-02-17T00:59:40.829Z,74.10
2023-02-17T01:05:03.205Z,70.90
2023-02-17T01:10:25.303Z,65.40
2023-02-17T01:15:50.961Z,75.60
2023-02-17T01:21:20.700Z,73.30
2023-02-17T01:26:42.210Z,76.20
2023-02-17T01:32:04.628Z,70.90
2023-02-17T01:37:26.571Z,67.20
2023-02-17T01:42:49.401Z,72.80
2023-02-17T01:48:16.650Z,71.40
2023-02-17T01:53:50.118Z,68.80
2023-02-17T01:59:18.136Z,70.90
2023-02-17T02:04:41.602Z,71.70
2023-02-17T02:10:03.834Z,74.70
2023-02-17T02:15:32.635Z,69.00
2023-02-17T02:21:07.978Z,70.00
2023-02-17T02:26:54.379Z,68.20
2023-02-17T02:32:38.496Z,74.40
2023-02-17T02:38:12.372Z,74.10
2023-02-17T02:43:35.968Z,68.30
2023-02-17T02:48:57.529Z,63.70
2023-02-17T02:54:58.086Z,63.70
2023-02-17T03:00:36.072Z,74.00
2023-02-17T03:06:24.195Z,66.70
2023-02-17T03:11:46.947Z,65.30
2023-02-17T03:17:08.957Z,58.40
2023-02-17T03:22:37.306Z,64.90
2023-02-17T03:27:59.350Z,64.10
2023-02-17T03:33:22.068Z,64.50
2023-02-17T03:38:44.099Z,58.90
2023-02-17T03:44:05.628Z,60.30
2023-02-17T03:49:27.755Z,57.20
2023-02-17T03:54:49.485Z,55.40
2023-02-17T04:00:14.129Z,60.80
2023-02-17T04:05:36.011Z,60.20
2023-02-17T04:11:01.306Z,56.90
2023-02-17T04:16:23.009Z,57.70
2023-02-17T04:21:44.853Z,63.30
2023-02-17T04:27:06.826Z,58.60
2023-02-17T04:32:28.830Z,57.40
2023-02-17T04:37:51.436Z,57.30
2023-02-17T04:43:13.774Z,60.00
2023-02-17T04:48:35.910Z,59.30
2023-02-17T04:53:57.829Z,57.90
2023-02-17T04:59:23.184Z,112.40
2023-02-17T05:04:46.737Z,129.90
2023-02-17T05:10:09.566Z,98.40
2023-02-17T05:15:33.143Z,66.40
2023-02-17T05:20:56.277Z,69.90
2023-02-17T05:26:18.136Z,82.30
2023-02-17T05:31:39.885Z,80.30
2023-02-17T05:37:02.301Z,94.50
2023-02-17T05:42:28.983Z,109.20
2023-02-17T05:47:50.670Z,97.10
2023-02-17T05:53:12.913Z,74.90
2023-02-17T05:58:36.535Z,88.90
2023-02-17T06:03:58.868Z,81.80
2023-02-17T06:09:21.001Z,160.50
2023-02-17T06:14:43.530Z,182.90
2023-02-17T06:20:06.174Z,120.60
2023-02-17T06:25:27.998Z,105.70
2023-02-17T06:30:50.120Z,101.50
2023-02-17T06:36:12.658Z,82.60
2023-02-17T06:41:34.480Z,66.10
2023-02-17T06:46:56.505Z,73.20
2023-02-17T06:52:19.241Z,100.20
2023-02-17T06:57:41.166Z,75.20
2023-02-17T07:03:03.003Z,79.20
2023-02-17T07:08:25.131Z,77.10
2023-02-17T07:13:46.860Z,70.00
2023-02-17T07:19:09.003Z,68.60
2023-02-17T07:24:31.419Z,56.40
2023-02-17T07:29:53.249Z,59.90
2023-02-17T07:35:14.742Z,58.80
2023-02-17T07:40:36.719Z,58.90
2023-02-17T07:45:59.507Z,72.50
2023-02-17T07:51:22.881Z,56.20
2023-02-17T07:56:44.697Z,55.90
2023-02-17T08:02:07.395Z,61.70
2023-02-17T08:07:30.060Z,50.90
2023-02-17T08:13:12.469Z,61.90
2023-02-17T08:18:36.481Z,52.20
2023-02-17T08:23:58.837Z,51.50
2023-02-17T08:29:21.162Z,51.20
2023-02-17T08:34:43.541Z,51.00
2023-02-17T08:40:06.720Z,51.20
2023-02-17T08:45:28.750Z,57.80
2023-02-17T08:50:50.784Z,53.70
2023-02-17T08:56:12.966Z,63.70
2023-02-17T09:01:35.648Z,56.50
2023-02-17T09:06:58.527Z,54.90
2023-02-17T09:12:20.214Z,51.70
2023-02-17T09:17:41.942Z,47.80
2023-02-17T09:23:04.174Z,46.70
2023-02-17T09:28:25.775Z,49.80
2023-02-17T09:33:48.732Z,53.30
2023-02-17T09:39:13.831Z,55.20
2023-02-17T09:44:45.340Z,50.80
2023-02-17T09:50:11.874Z,52.20
2023-02-17T09:55:37.967Z,49.40
2023-02-17T10:01:05.784Z,55.20
2023-02-17T10:06:31.637Z,39.50
2023-02-17T10:12:04.395Z,53.50
2023-02-17T10:17:35.534Z,74.60
2023-02-17T10:23:07.707Z,55.40
2023-02-17T10:28:37.168Z,43.90
2023-02-17T10:34:05.897Z,44.00
2023-02-17T10:39:46.210Z,41.60
2023-02-17T10:45:11.451Z,55.40
2023-02-17T10:50:34.956Z,53.90
2023-02-17T10:56:05.446Z,54.20
2023-02-17T11:01:28.580Z,59.30
2023-02-17T11:06:53.424Z,61.30
2023-02-17T11:12:29.398Z,44.40
2023-02-17T11:17:52.032Z,38.70
2023-02-17T11:23:16.779Z,47.70
2023-02-17T11:28:38.592Z,38.20
2023-02-17T11:34:11.470Z,44.70
2023-02-17T11:39:41.530Z,46.30
2023-02-17T11:45:17.520Z,58.90
2023-02-17T11:50:58.511Z,45.90
2023-02-17T11:56:41.412Z,43.30
2023-02-17T12:02:16.424Z,40.80
2023-02-17T12:07:58.479Z,45.90
2023-02-17T12:13:36.473Z,53.50
2023-02-17T12:19:19.884Z,42.30
2023-02-17T12:24:45.382Z,51.60
2023-02-17T12:30:34.433Z,129.40
2023-02-17T12:36:01.890Z,45.50
2023-02-17T12:41:40.784Z,45.00
2023-02-17T12:47:10.455Z,44.40
2023-02-17T12:52:39.782Z,44.80
2023-02-17T12:58:08.135Z,47.20
2023-02-17T13:03:33.778Z,41.50
2023-02-17T13:08:58.636Z,43.00
2023-02-17T13:14:47.673Z,38.80
2023-02-17T13:20:09.573Z,77.00
2023-02-17T13:25:35.066Z,42.60
2023-02-17T13:31:09.664Z,54.70
2023-02-17T13:36:31.536Z,36.40
2023-02-17T13:41:58.169Z,50.00
2023-02-17T13:47:30.527Z,40.40
2023-02-17T13:52:52.663Z,36.60
2023-02-17T13:58:14.690Z,38.70
2023-02-17T14:03:47.359Z,42.70
2023-02-17T14:09:34.675Z,36.40
2023-02-17T14:14:56.401Z,33.20
2023-02-17T14:20:33.696Z,36.40
2023-02-17T14:25:57.118Z,34.00
2023-02-17T14:31:20.639Z,27.90
2023-02-17T14:36:42.713Z,39.10
2023-02-17T14:42:05.414Z,30.70
2023-02-17T14:47:27.545Z,36.50
2023-02-17T14:52:50.085Z,32.70
2023-02-17T14:58:24.152Z,42.70
2023-02-17T15:03:46.484Z,48.90
2023-02-17T15:09:12.439Z,45.10
2023-02-17T15:14:36.669Z,45.30
2023-02-17T15:19:59.041Z,91.50
2023-02-17T15:25:25.746Z,52.10
2023-02-17T15:30:52.950Z,43.90
2023-02-17T15:36:17.330Z,39.30
2023-02-17T15:41:40.443Z,49.20
2023-02-17T15:47:02.503Z,51.90
2023-02-17T15:52:24.355Z,45.20
2023-02-17T15:57:49.772Z,57.40
2023-02-17T16:03:13.734Z,35.80
2023-02-17T16:08:35.928Z,42.00
2023-02-17T16:13:57.774Z,30.70
2023-02-17T16:19:19.784Z,31.80
2023-02-17T16:24:42.219Z,30.80
2023-02-17T16:30:23.103Z,35.20
2023-02-17T16:35:45.373Z,59.90
2023-02-17T16:41:08.175Z,46.50
2023-02-17T16:46:34.635Z,42.10
2023-02-17T16:51:56.365Z,41.10
2023-02-17T16:57:19.809Z,37.20
2023-02-17T17:02:41.776Z,29.20
2023-02-17T17:08:04.146Z,32.40
2023-02-17T17:13:25.873Z,36.40
2023-02-17T17:18:48.097Z,40.40
2023-02-17T17:24:11.942Z,39.70
2023-02-17T17:29:33.770Z,29.90
2023-02-17T17:34:56.200Z,43.90
2023-02-17T17:40:22.041Z,49.40
2023-02-17T17:45:43.981Z,42.90
2023-02-17T17:51:07.023Z,55.90
2023-02-17T17:56:38.972Z,48.90
2023-02-17T18:02:00.499Z,36.60
2023-02-17T18:07:22.528Z,30.80
2023-02-17T18:12:45.966Z,29.90
2023-02-17T18:18:07.696Z,36.30
2023-02-17T18:23:29.832Z,42.60
2023-02-17T18:28:54.862Z,40.30
2023-02-17T18:34:16.988Z,37.10
2023-02-17T18:39:39.415Z,35.80
2023-02-17T18:45:01.646Z,36.80
2023-02-17T18:50:23.482Z,41.20
2023-02-17T18:55:46.509Z,40.50
2023-02-17T19:01:15.647Z,38.90
2023-02-17T19:06:37.594Z,41.10
2023-02-17T19:11:59.218Z,38.00
2023-02-17T19:17:21.053Z,25.80
2023-02-17T19:22:43.075Z,37.00
2023-02-17T19:28:05.006Z,26.30
2023-02-17T19:33:27.639Z,32.10
2023-02-17T19:38:50.394Z,29.00
2023-02-17T19:44:12.317Z,37.50
2023-02-17T19:49:34.236Z,30.80
2023-02-17T19:55:02.954Z,31.20
2023-02-17T20:00:25.263Z,30.50
2023-02-17T20:06:13.362Z,23.40
2023-02-17T20:11:35.871Z,23.30
2023-02-17T20:16:59.760Z,25.20
2023-02-17T20:22:21.936Z,19.80
2023-02-17T20:27:44.565Z,18.00
2023-02-17T20:33:06.657Z,32.80
2023-02-17T20:38:28.526Z,18.80
2023-02-17T20:43:51.213Z,17.60
2023-02-17T20:49:14.006Z,16.60
2023-02-17T20:54:36.109Z,20.50
2023-02-17T21:00:01.470Z,15.10
2023-02-17T21:05:24.602Z,14.30
2023-02-17T21:10:46.484Z,14.40
2023-02-17T21:16:18.157Z,17.30
2023-02-17T21:21:41.185Z,16.20
2023-02-17T21:27:03.161Z,23.80
2023-02-17T21:32:28.026Z,22.00
2023-02-17T21:37:50.220Z,15.30
2023-02-17T21:43:32.221Z,11.00
2023-02-17T21:48:55.663Z,10.80
2023-02-17T21:54:17.282Z,11.00
2023-02-17T21:59:40.114Z,15.30
2023-02-17T22:05:01.747Z,12.80
2023-02-17T22:10:23.776Z,10.20
2023-02-17T22:15:47.292Z,11.30
2023-02-17T22:21:11.443Z,11.00
2023-02-17T22:26:36.285Z,12.30
2023-02-17T22:32:01.373Z,9.90
2023-02-17T22:37:26.067Z,10.40
2023-02-17T22:42:48.092Z,13.80
2023-02-17T22:48:10.122Z,11.00
2023-02-17T22:53:31.950Z,10.70
2023-02-17T22:58:56.570Z,11.10
2023-02-17T23:04:18.370Z,12.40
2023-02-17T23:09:40.455Z,12.10
2023-02-17T23:15:02.479Z,11.50
2023-02-17T23:20:25.030Z,13.20
2023-02-17T23:25:52.145Z,12.70
2023-02-17T23:31:14.313Z,12.40
2023-02-17T23:36:39.380Z,14.00
2023-02-17T23:42:01.079Z,29.90
2023-02-17T23:47:23.503Z,15.00
2023-02-17T23:52:45.160Z,14.00
2023-02-17T23:58:07.274Z,19.60
